createdAt,value
2019-03-27T00:00:57.877Z,99.90
2019-03-27T00:03:29.228Z,99.90
2019-03-27T00:06:00.593Z,99.90
2019-03-27T00:08:31.819Z,99.90
2019-03-27T00:11:02.961Z,99.90
2019-03-27T00:13:34.173Z,99.90
2019-03-27T00:16:05.889Z,99.90
2019-03-27T00:18:37.134Z,99.90
2019-03-27T00:21:08.451Z,99.90
2019-03-27T00:23:39.828Z,99.90
2019-03-27T00:26:11.308Z,99.90
2019-03-27T00:28:42.808Z,99.90
2019-03-27T00:31:13.975Z,99.90
2019-03-27T00:33:45.323Z,99.90
2019-03-27T00:36:16.589Z,99.90
2019-03-27T00:38:48.822Z,99.90
2019-03-27T00:41:20.085Z,99.90
2019-03-27T00:43:51.354Z,99.90
2019-03-27T00:46:24.374Z,99.90
2019-03-27T00:48:55.751Z,99.90
2019-03-27T00:51:26.992Z,99.90
2019-03-27T00:53:58.219Z,99.90
2019-03-27T00:56:29.642Z,99.90
2019-03-27T00:59:00.972Z,99.90
2019-03-27T01:01:32.340Z,99.90
2019-03-27T01:04:03.603Z,99.90
2019-03-27T01:06:34.804Z,99.90
2019-03-27T01:09:06.982Z,99.90
2019-03-27T01:11:38.284Z,99.90
2019-03-27T01:14:11.779Z,99.90
2019-03-27T01:16:43.027Z,99.90
2019-03-27T01:19:14.258Z,99.90
2019-03-27T01:21:45.416Z,99.90
2019-03-27T01:24:16.674Z,99.90
2019-03-27T01:26:47.873Z,99.90
2019-03-27T01:29:19.256Z,99.90
2019-03-27T01:31:50.521Z,99.90
2019-03-27T01:34:21.689Z,99.90
2019-03-27T01:36:52.857Z,99.90
2019-03-27T01:39:24.008Z,99.90
2019-03-27T01:41:55.482Z,99.90
2019-03-27T01:44:26.640Z,99.90
2019-03-27T01:46:57.747Z,99.90
2019-03-27T01:49:28.978Z,99.90
2019-03-27T01:52:00.099Z,99.90
2019-03-27T01:54:31.288Z,99.90
2019-03-27T01:57:02.452Z,99.90
2019-03-27T01:59:34.027Z,99.90
2019-03-27T02:02:05.198Z,99.90
2019-03-27T02:04:36.398Z,99.90
2019-03-27T02:07:07.596Z,99.90
2019-03-27T02:09:38.789Z,99.90
2019-03-27T02:12:10.044Z,99.90
2019-03-27T02:14:41.432Z,99.90
2019-03-27T02:17:12.618Z,99.90
2019-03-27T02:19:43.863Z,99.90
2019-03-27T02:22:14.976Z,99.90
2019-03-27T02:24:46.163Z,99.90
2019-03-27T02:27:17.689Z,99.90
2019-03-27T02:29:48.818Z,99.90
2019-03-27T02:32:21.153Z,99.90
2019-03-27T02:34:52.456Z,99.90
2019-03-27T02:37:23.604Z,99.90
2019-03-27T02:39:54.756Z,99.90
2019-03-27T02:42:26.068Z,99.90
2019-03-27T02:44:57.379Z,99.90
2019-03-27T02:47:28.696Z,99.90
2019-03-27T02:49:59.853Z,99.90
2019-03-27T02:52:31.016Z,99.90
2019-03-27T02:55:02.433Z,99.90
2019-03-27T02:57:33.719Z,99.90
2019-03-27T03:00:06.021Z,99.90
2019-03-27T03:02:37.152Z,99.90
2019-03-27T03:05:09.078Z,99.90
2019-03-27T03:07:40.370Z,99.90
2019-03-27T03:10:12.428Z,99.90
2019-03-27T03:12:43.588Z,99.90
2019-03-27T03:15:21.293Z,99.90
2019-03-27T03:17:52.579Z,99.90
2019-03-27T03:20:24.036Z,99.90
2019-03-27T03:22:55.191Z,99.90
2019-03-27T03:25:28.788Z,99.90
2019-03-27T03:28:00.020Z,99.90
2019-03-27T03:30:31.525Z,99.90
2019-03-27T03:33:02.736Z,99.90
2019-03-27T03:35:33.976Z,99.90
2019-03-27T03:38:05.954Z,99.90
2019-03-27T03:40:37.134Z,99.90
2019-03-27T03:43:08.484Z,99.90
2019-03-27T03:45:39.664Z,99.90
2019-03-27T03:48:10.895Z,99.90
2019-03-27T03:50:44.115Z,99.90
2019-03-27T03:53:15.874Z,99.90
2019-03-27T03:55:47.385Z,99.90
2019-03-27T03:58:18.746Z,99.90
2019-03-27T04:00:50.820Z,99.90
2019-03-27T04:03:25.558Z,99.90
2019-03-27T04:05:56.757Z,99.90
2019-03-27T04:08:27.967Z,99.90
2019-03-27T04:10:59.124Z,99.90
2019-03-27T04:13:30.297Z,99.90
2019-03-27T04:16:02.411Z,99.90
2019-03-27T04:18:33.725Z,99.90
2019-03-27T04:21:05.040Z,99.90
2019-03-27T04:23:36.294Z,99.90
2019-03-27T04:26:10.107Z,99.90
2019-03-27T04:28:40.286Z,99.90
2019-03-27T04:31:11.508Z,99.90
2019-03-27T04:33:43.266Z,99.90
2019-03-27T04:36:14.812Z,99.90
2019-03-27T04:38:46.123Z,99.90
2019-03-27T04:41:17.329Z,99.90
2019-03-27T04:43:48.569Z,99.90
2019-03-27T04:46:19.797Z,99.90
2019-03-27T04:48:51.010Z,99.90
2019-03-27T04:51:22.194Z,99.90
2019-03-27T04:53:53.360Z,99.90
2019-03-27T04:56:24.829Z,99.90
2019-03-27T04:58:56.035Z,99.90
2019-03-27T05:01:27.202Z,99.90
2019-03-27T05:03:58.510Z,99.90
2019-03-27T05:06:29.683Z,99.90
2019-03-27T05:09:00.868Z,99.90
2019-03-27T05:11:31.989Z,99.90
2019-03-27T05:14:03.182Z,99.90
2019-03-27T05:16:34.459Z,99.90
2019-03-27T05:19:05.659Z,99.90
2019-03-27T05:21:36.929Z,99.90
2019-03-27T05:24:08.121Z,99.90
2019-03-27T05:26:39.338Z,99.90
2019-03-27T05:29:10.494Z,99.90
2019-03-27T05:31:41.974Z,99.70
2019-03-27T05:34:13.104Z,99.70
2019-03-27T05:36:44.297Z,99.70
2019-03-27T05:39:17.193Z,99.60
2019-03-27T05:41:48.317Z,99.60
2019-03-27T05:44:19.473Z,99.50
2019-03-27T05:46:50.672Z,99.30
2019-03-27T05:49:22.025Z,99.30
2019-03-27T05:51:53.260Z,99.30
2019-03-27T05:54:24.525Z,99.00
2019-03-27T05:56:56.222Z,99.00
2019-03-27T05:59:27.389Z,98.90
2019-03-27T06:01:58.787Z,98.70
2019-03-27T06:04:30.087Z,98.60
2019-03-27T06:07:01.264Z,98.60
2019-03-27T06:09:32.404Z,98.40
2019-03-27T06:12:03.618Z,98.50
2019-03-27T06:14:34.860Z,98.30
2019-03-27T06:17:06.001Z,98.20
2019-03-27T06:19:37.130Z,98.10
2019-03-27T06:22:08.320Z,98.20
2019-03-27T06:24:39.481Z,98.10
2019-03-27T06:27:10.741Z,98.00
2019-03-27T06:29:42.000Z,97.90
2019-03-27T06:32:14.258Z,97.90
2019-03-27T06:34:45.487Z,97.80
2019-03-27T06:37:16.682Z,97.90
2019-03-27T06:39:47.863Z,97.80
2019-03-27T06:42:19.041Z,97.80
2019-03-27T06:44:50.243Z,97.70
2019-03-27T06:47:21.416Z,97.60
2019-03-27T06:49:52.665Z,97.50
2019-03-27T06:52:23.865Z,97.60
2019-03-27T06:54:55.090Z,97.50
2019-03-27T06:57:26.290Z,97.40
2019-03-27T06:59:57.661Z,97.10
2019-03-27T07:02:29.114Z,97.00
2019-03-27T07:05:00.502Z,96.90
2019-03-27T07:07:31.738Z,96.60
2019-03-27T07:10:02.989Z,96.70
2019-03-27T07:12:34.407Z,96.60
2019-03-27T07:15:06.477Z,96.30
2019-03-27T07:17:37.686Z,96.00
2019-03-27T07:20:09.176Z,95.60
2019-03-27T07:22:41.195Z,95.10
2019-03-27T07:25:12.808Z,94.80
2019-03-27T07:27:44.045Z,94.30
2019-03-27T07:30:15.624Z,94.00
2019-03-27T07:32:51.721Z,93.70
2019-03-27T07:35:23.173Z,92.90
2019-03-27T07:37:54.480Z,92.60
2019-03-27T07:40:25.686Z,92.10
2019-03-27T07:42:56.899Z,92.00
2019-03-27T07:45:28.161Z,91.90
2019-03-27T07:47:59.344Z,91.50
2019-03-27T07:50:30.570Z,91.20
2019-03-27T07:53:01.817Z,90.80
2019-03-27T07:55:32.941Z,89.30
2019-03-27T07:58:04.206Z,87.20
2019-03-27T08:00:35.435Z,85.70
2019-03-27T08:03:08.676Z,84.00
2019-03-27T08:05:39.951Z,83.20
2019-03-27T08:08:11.163Z,80.80
2019-03-27T08:10:43.365Z,79.40
2019-03-27T08:13:14.769Z,78.10
2019-03-27T08:15:45.935Z,72.60
2019-03-27T08:18:17.130Z,69.20
2019-03-27T08:20:48.398Z,63.90
2019-03-27T08:23:19.641Z,60.10
2019-03-27T08:25:50.877Z,61.60
2019-03-27T08:28:22.103Z,61.40
2019-03-27T08:30:54.377Z,61.90
2019-03-27T08:33:25.650Z,62.80
2019-03-27T08:35:56.772Z,63.60
2019-03-27T08:38:27.964Z,62.60
2019-03-27T08:40:59.213Z,61.20
2019-03-27T08:43:30.368Z,58.20
2019-03-27T08:46:01.647Z,58.80
2019-03-27T08:48:32.756Z,59.40
2019-03-27T08:51:04.382Z,59.80
2019-03-27T08:53:35.771Z,60.50
2019-03-27T08:56:06.890Z,63.40
2019-03-27T08:58:38.128Z,65.70
2019-03-27T09:01:09.332Z,66.70
2019-03-27T09:03:40.581Z,65.60
2019-03-27T09:06:11.794Z,63.50
2019-03-27T09:08:43.100Z,60.50
2019-03-27T09:11:14.344Z,58.00
2019-03-27T09:13:45.528Z,55.60
2019-03-27T09:16:16.826Z,53.20
2019-03-27T09:18:48.084Z,51.80
2019-03-27T09:21:19.348Z,49.30
2019-03-27T09:23:50.508Z,43.10
2019-03-27T09:26:21.695Z,41.50
2019-03-27T09:28:53.032Z,41.90
2019-03-27T09:31:24.254Z,43.10
2019-03-27T09:33:55.571Z,44.40
2019-03-27T09:36:26.911Z,44.60
2019-03-27T09:38:58.245Z,44.00
2019-03-27T09:41:29.571Z,40.90
2019-03-27T09:44:00.770Z,38.80
2019-03-27T09:46:31.935Z,39.50
2019-03-27T09:49:03.151Z,42.10
2019-03-27T09:51:34.692Z,43.70
2019-03-27T09:54:06.153Z,44.00
2019-03-27T09:56:37.404Z,43.40
2019-03-27T09:59:08.728Z,43.10
2019-03-27T10:01:39.984Z,41.60
2019-03-27T10:04:11.221Z,39.20
2019-03-27T10:06:42.494Z,38.60
2019-03-27T10:09:13.820Z,38.90
2019-03-27T10:11:44.972Z,39.00
2019-03-27T10:14:16.060Z,39.10
2019-03-27T10:16:47.245Z,40.50
2019-03-27T10:19:22.490Z,42.80
2019-03-27T10:21:53.700Z,44.00
2019-03-27T10:24:24.848Z,45.80
2019-03-27T10:26:56.041Z,47.40
2019-03-27T10:29:27.459Z,48.20
2019-03-27T10:31:58.766Z,49.20
2019-03-27T10:34:29.956Z,49.70
2019-03-27T10:37:01.136Z,49.20
2019-03-27T10:39:32.348Z,49.60
2019-03-27T10:42:03.729Z,50.70
2019-03-27T10:44:35.128Z,51.40
2019-03-27T10:47:06.416Z,51.50
2019-03-27T10:49:37.639Z,51.50
2019-03-27T10:52:09.099Z,52.30
2019-03-27T10:54:40.252Z,52.30
2019-03-27T10:57:11.529Z,52.10
2019-03-27T10:59:42.807Z,50.70
2019-03-27T11:02:14.137Z,46.90
2019-03-27T11:04:45.598Z,46.50
2019-03-27T11:07:18.093Z,48.50
2019-03-27T11:09:49.283Z,50.60
2019-03-27T11:12:20.424Z,52.10
2019-03-27T11:14:51.610Z,52.70
2019-03-27T11:17:22.822Z,53.70
2019-03-27T11:19:55.661Z,55.00
2019-03-27T11:22:27.393Z,55.40
2019-03-27T11:24:58.550Z,54.60
2019-03-27T11:27:29.713Z,54.30
2019-03-27T11:30:00.857Z,53.60
2019-03-27T11:32:32.283Z,53.10
2019-03-27T11:35:03.529Z,52.40
2019-03-27T11:37:36.602Z,53.60
2019-03-27T11:40:08.130Z,54.00
2019-03-27T11:42:39.264Z,54.10
2019-03-27T11:45:10.759Z,53.10
2019-03-27T11:47:41.998Z,52.70
2019-03-27T11:50:13.461Z,52.70
2019-03-27T11:52:44.625Z,52.40
2019-03-27T11:55:19.469Z,50.90
2019-03-27T11:57:50.693Z,50.10
2019-03-27T12:00:22.426Z,50.80
2019-03-27T12:02:53.608Z,49.70
2019-03-27T12:05:24.821Z,47.40
2019-03-27T12:07:56.096Z,47.30
2019-03-27T12:10:27.376Z,46.30
2019-03-27T12:12:58.602Z,45.80
2019-03-27T12:15:40.700Z,43.90
2019-03-27T12:18:15.507Z,43.40
2019-03-27T12:20:58.190Z,42.90
2019-03-27T12:23:20.288Z,43.10
2019-03-27T12:25:51.537Z,44.70
2019-03-27T12:28:22.742Z,44.00
2019-03-27T12:30:53.931Z,44.40
2019-03-27T12:33:25.235Z,43.70
2019-03-27T12:35:56.551Z,44.70
2019-03-27T12:38:27.948Z,45.20
2019-03-27T12:40:59.204Z,45.80
2019-03-27T12:43:30.402Z,46.80
2019-03-27T12:46:01.860Z,47.10
2019-03-27T12:48:33.179Z,47.40
2019-03-27T12:51:12.699Z,47.80
2019-03-27T12:53:37.324Z,47.80
2019-03-27T12:56:08.884Z,47.90
2019-03-27T12:58:40.221Z,47.40
2019-03-27T13:01:11.407Z,47.50
2019-03-27T13:03:44.514Z,46.90
2019-03-27T13:06:16.423Z,46.00
2019-03-27T13:08:49.510Z,46.20
2019-03-27T13:11:22.295Z,46.30
2019-03-27T13:13:54.570Z,46.10
2019-03-27T13:16:25.762Z,47.50
2019-03-27T13:18:57.162Z,46.60
2019-03-27T13:21:28.650Z,46.10
2019-03-27T13:23:59.956Z,46.60
2019-03-27T13:26:31.170Z,46.50
2019-03-27T13:29:03.626Z,46.10
2019-03-27T13:31:34.784Z,45.30
2019-03-27T13:34:06.041Z,46.00
2019-03-27T13:36:38.876Z,45.70
2019-03-27T13:39:10.126Z,45.90
2019-03-27T13:41:41.303Z,47.10
2019-03-27T13:44:12.477Z,47.30
2019-03-27T13:46:43.808Z,47.70
2019-03-27T13:49:15.080Z,47.70
2019-03-27T13:51:46.352Z,47.20
2019-03-27T13:54:17.933Z,46.30
2019-03-27T13:56:49.165Z,47.10
2019-03-27T13:59:20.365Z,47.30
2019-03-27T14:01:51.590Z,48.00
2019-03-27T14:04:22.730Z,48.60
2019-03-27T14:06:53.965Z,48.70
2019-03-27T14:09:25.200Z,49.10
2019-03-27T14:11:56.319Z,49.50
2019-03-27T14:14:27.657Z,48.20
2019-03-27T14:16:59.145Z,48.90
2019-03-27T14:19:30.416Z,49.10
2019-03-27T14:22:01.549Z,49.80
2019-03-27T14:24:34.692Z,50.30
2019-03-27T14:27:05.960Z,50.30
2019-03-27T14:29:37.260Z,50.30
2019-03-27T14:32:08.424Z,49.40
2019-03-27T14:34:39.533Z,49.50
2019-03-27T14:37:10.878Z,49.70
2019-03-27T14:39:42.144Z,49.60
2019-03-27T14:42:13.325Z,50.00
2019-03-27T14:44:44.575Z,49.30
2019-03-27T14:47:15.925Z,49.40
2019-03-27T14:49:47.180Z,49.90
2019-03-27T14:52:18.397Z,50.40
2019-03-27T14:54:49.692Z,50.80
2019-03-27T14:57:20.902Z,51.40
2019-03-27T14:59:52.111Z,51.80
2019-03-27T15:02:23.329Z,52.30
2019-03-27T15:04:54.525Z,52.30
2019-03-27T15:07:25.749Z,52.60
2019-03-27T15:09:57.032Z,53.20
2019-03-27T15:12:30.572Z,54.90
2019-03-27T15:15:01.764Z,55.10
2019-03-27T15:17:33.200Z,55.30
2019-03-27T15:20:05.352Z,55.00
2019-03-27T15:22:36.809Z,54.60
2019-03-27T15:25:08.666Z,54.50
2019-03-27T15:27:40.052Z,54.70
2019-03-27T15:30:12.905Z,55.30
2019-03-27T15:32:44.489Z,56.10
2019-03-27T15:35:16.476Z,56.60
2019-03-27T15:37:50.129Z,56.10
2019-03-27T15:40:38.298Z,55.90
2019-03-27T15:43:09.396Z,56.00
2019-03-27T15:45:42.769Z,56.30
2019-03-27T15:48:14.059Z,56.30
2019-03-27T15:50:55.559Z,56.80
2019-03-27T15:53:18.084Z,57.20
2019-03-27T15:55:49.367Z,57.50
2019-03-27T15:58:20.742Z,58.10
2019-03-27T16:00:51.992Z,58.50
2019-03-27T16:03:23.280Z,59.10
2019-03-27T16:05:54.588Z,59.90
2019-03-27T16:08:25.810Z,60.40
2019-03-27T16:10:57.115Z,60.50
2019-03-27T16:13:28.309Z,60.90
2019-03-27T16:15:59.543Z,61.50
2019-03-27T16:18:30.642Z,61.80
2019-03-27T16:21:02.212Z,61.90
2019-03-27T16:23:33.357Z,62.00
2019-03-27T16:26:04.705Z,62.40
2019-03-27T16:28:35.860Z,62.90
2019-03-27T16:31:07.452Z,63.60
2019-03-27T16:33:38.923Z,64.10
2019-03-27T16:36:10.092Z,64.60
2019-03-27T16:38:41.321Z,64.70
2019-03-27T16:41:12.763Z,65.70
2019-03-27T16:43:44.354Z,66.10
2019-03-27T16:46:16.039Z,66.70
2019-03-27T16:48:47.144Z,67.50
2019-03-27T16:51:18.272Z,68.10
2019-03-27T16:53:49.431Z,68.90
2019-03-27T16:56:20.589Z,69.60
2019-03-27T16:58:52.061Z,71.10
2019-03-27T17:01:23.246Z,72.60
2019-03-27T17:03:54.443Z,73.30
2019-03-27T17:06:25.595Z,73.90
2019-03-27T17:08:57.095Z,74.70
2019-03-27T17:11:28.248Z,74.60
2019-03-27T17:14:00.261Z,74.60
2019-03-27T17:16:31.589Z,74.90
2019-03-27T17:19:02.799Z,75.10
2019-03-27T17:21:33.950Z,75.20
2019-03-27T17:24:05.091Z,75.90
2019-03-27T17:26:36.289Z,76.20
2019-03-27T17:29:07.557Z,76.70
2019-03-27T17:31:38.797Z,77.40
2019-03-27T17:34:10.368Z,77.40
2019-03-27T17:36:41.625Z,77.70
2019-03-27T17:39:13.003Z,77.90
2019-03-27T17:41:44.288Z,78.10
2019-03-27T17:44:16.008Z,79.20
2019-03-27T17:46:50.006Z,79.40
2019-03-27T17:49:20.059Z,79.90
2019-03-27T17:51:52.108Z,80.00
2019-03-27T17:54:23.267Z,80.00
2019-03-27T17:56:54.397Z,80.40
2019-03-27T17:59:25.557Z,80.60
2019-03-27T18:01:56.698Z,80.70
2019-03-27T18:04:30.629Z,80.80
2019-03-27T18:07:01.813Z,81.20
2019-03-27T18:09:33.023Z,81.70
2019-03-27T18:12:04.276Z,81.30
2019-03-27T18:14:37.015Z,81.40
2019-03-27T18:17:08.121Z,81.40
2019-03-27T18:19:39.228Z,81.40
2019-03-27T18:22:10.377Z,81.40
2019-03-27T18:24:41.566Z,81.50
2019-03-27T18:27:12.753Z,81.50
2019-03-27T18:29:43.854Z,82.10
2019-03-27T18:32:15.238Z,81.90
2019-03-27T18:34:46.384Z,81.90
2019-03-27T18:37:17.553Z,81.70
2019-03-27T18:39:48.792Z,81.80
2019-03-27T18:42:19.900Z,81.90
2019-03-27T18:44:51.110Z,81.70
2019-03-27T18:47:22.294Z,81.80
2019-03-27T18:49:53.502Z,81.90
2019-03-27T18:52:25.229Z,81.80
2019-03-27T18:54:56.489Z,81.50
2019-03-27T18:57:27.729Z,81.20
2019-03-27T18:59:59.047Z,81.20
2019-03-27T19:02:30.269Z,81.00
2019-03-27T19:05:01.679Z,81.10
2019-03-27T19:07:33.356Z,81.00
2019-03-27T19:10:06.478Z,81.10
2019-03-27T19:12:37.977Z,81.10
2019-03-27T19:15:09.864Z,81.30
2019-03-27T19:17:41.136Z,81.30
2019-03-27T19:20:12.568Z,81.20
2019-03-27T19:22:43.912Z,81.20
2019-03-27T19:25:15.120Z,81.20
2019-03-27T19:27:46.380Z,81.50
2019-03-27T19:30:18.037Z,81.40
2019-03-27T19:32:49.302Z,81.50
2019-03-27T19:35:20.662Z,81.80
2019-03-27T19:37:51.979Z,82.10
2019-03-27T19:40:23.269Z,82.50
2019-03-27T19:42:54.631Z,82.60
2019-03-27T19:45:26.185Z,82.80
2019-03-27T19:47:57.420Z,83.10
2019-03-27T19:50:29.676Z,83.40
2019-03-27T19:53:00.870Z,83.70
2019-03-27T19:55:32.047Z,84.50
2019-03-27T19:58:03.384Z,85.10
2019-03-27T20:00:34.849Z,86.10
2019-03-27T20:03:06.202Z,87.00
2019-03-27T20:05:37.349Z,87.60
2019-03-27T20:08:08.639Z,88.60
2019-03-27T20:10:39.948Z,89.30
2019-03-27T20:13:11.241Z,90.90
2019-03-27T20:15:42.489Z,91.70
2019-03-27T20:18:13.893Z,92.30
2019-03-27T20:20:47.058Z,92.70
2019-03-27T20:23:18.436Z,93.60
2019-03-27T20:25:49.741Z,94.20
2019-03-27T20:28:21.159Z,95.00
2019-03-27T20:30:52.366Z,95.70
2019-03-27T20:33:23.544Z,96.40
2019-03-27T20:35:54.783Z,96.80
2019-03-27T20:38:25.988Z,97.00
2019-03-27T20:40:57.288Z,97.40
2019-03-27T20:43:28.547Z,97.70
2019-03-27T20:46:00.086Z,98.00
2019-03-27T20:48:31.508Z,98.40
2019-03-27T20:51:02.782Z,98.50
2019-03-27T20:53:34.071Z,98.80
2019-03-27T20:56:05.467Z,99.20
2019-03-27T20:58:36.706Z,99.50
2019-03-27T21:01:08.148Z,99.60
2019-03-27T21:03:39.409Z,99.60
2019-03-27T21:06:10.957Z,99.50
2019-03-27T21:08:42.311Z,99.30
2019-03-27T21:11:16.284Z,99.40
2019-03-27T21:13:51.139Z,99.30
2019-03-27T21:16:22.348Z,99.30
2019-03-27T21:18:56.493Z,99.00
2019-03-27T21:21:27.827Z,98.80
2019-03-27T21:23:59.433Z,98.70
2019-03-27T21:26:32.466Z,98.80
2019-03-27T21:29:04.049Z,98.70
2019-03-27T21:31:35.334Z,98.60
2019-03-27T21:34:06.908Z,98.50
2019-03-27T21:36:38.258Z,98.40
2019-03-27T21:39:13.015Z,98.30
2019-03-27T21:41:44.384Z,98.30
2019-03-27T21:44:15.806Z,98.30
2019-03-27T21:46:47.485Z,98.00
2019-03-27T21:49:18.712Z,98.40
2019-03-27T21:51:50.016Z,98.50
2019-03-27T21:54:21.440Z,98.70
2019-03-27T21:56:52.687Z,98.80
2019-03-27T21:59:24.210Z,98.80
2019-03-27T22:01:56.399Z,98.70
2019-03-27T22:04:28.669Z,98.70
2019-03-27T22:07:00.302Z,98.90
2019-03-27T22:09:33.913Z,98.90
2019-03-27T22:12:05.397Z,99.00
2019-03-27T22:14:36.753Z,99.00
2019-03-27T22:17:08.267Z,99.20
2019-03-27T22:19:42.201Z,99.30
2019-03-27T22:22:12.421Z,99.30
2019-03-27T22:24:43.667Z,99.40
2019-03-27T22:27:14.825Z,99.40
2019-03-27T22:29:48.210Z,99.30
2019-03-27T22:32:20.156Z,99.30
2019-03-27T22:34:51.389Z,99.40
2019-03-27T22:37:22.538Z,99.40
2019-03-27T22:39:53.946Z,99.30
2019-03-27T22:42:25.194Z,99.30
2019-03-27T22:44:56.405Z,99.20
2019-03-27T22:47:27.913Z,99.20
2019-03-27T22:49:59.192Z,99.10
2019-03-27T22:52:30.469Z,99.10
2019-03-27T22:55:01.742Z,99.10
2019-03-27T22:57:33.323Z,99.00
2019-03-27T23:00:06.586Z,98.80
2019-03-27T23:02:37.916Z,98.80
2019-03-27T23:05:09.512Z,98.70
2019-03-27T23:07:42.554Z,98.70
2019-03-27T23:10:14.204Z,98.70
2019-03-27T23:12:47.561Z,98.60
2019-03-27T23:15:20.734Z,98.30
2019-03-27T23:17:52.179Z,98.20
2019-03-27T23:20:23.497Z,98.20
2019-03-27T23:22:54.964Z,98.30
2019-03-27T23:25:26.185Z,98.00
2019-03-27T23:27:57.494Z,97.90
2019-03-27T23:30:28.795Z,97.90
2019-03-27T23:33:00.179Z,97.50
2019-03-27T23:35:31.334Z,97.40
2019-03-27T23:38:02.451Z,97.30
2019-03-27T23:40:33.610Z,97.20
2019-03-27T23:43:04.919Z,97.50
2019-03-27T23:45:36.224Z,97.00
2019-03-27T23:48:07.381Z,96.90
2019-03-27T23:50:38.579Z,96.70
2019-03-27T23:53:09.861Z,96.70
2019-03-27T23:55:41.939Z,96.80
2019-03-27T23:58:13.200Z,96.70
